Time;durP1;ratioP1;P1;durP2;ratioP2;P2;SDS_P1;SDS_P2;PMS_P1;PMS_P2;Temp;Humidity;BMP_temperature;BMP_pressure;BME280_temperature;BME280_humidity;BME280_pressure;Samples;Min_cycle;Max_cycle;Signal;HPM_P1;HPM_P2
2023/09/24 00:01:00;;;;;;;10.68;2.15;;;;;;;12.50;100.00;101283.84;8323857;28;20048;-88
2023/09/24 00:05:01;;;;;;;5.35;1.90;;;;;;;12.48;100.00;101285.81;8338035;28;20555;-87
2023/09/24 00:09:02;;;;;;;7.07;1.90;;;;;;;12.49;100.00;101325.50;8328154;28;20053;-87
2023/09/24 00:13:03;;;;;;;4.00;1.85;;;;;;;12.57;100.00;101339.28;8356159;28;20045;-83
2023/09/24 00:17:05;;;;;;;4.85;2.03;;;;;;;12.38;100.00;101299.31;8328838;28;20055;-83
2023/09/24 00:21:06;;;;;;;5.72;1.55;;;;;;;12.68;100.00;101336.47;8336618;28;20119;-83
2023/09/24 00:25:07;;;;;;;3.85;1.75;;;;;;;12.58;100.00;101325.59;8343752;28;20040;-83
2023/09/24 00:29:10;;;;;;;3.65;1.52;;;;;;;12.62;100.00;101337.00;8345432;28;20025;-87
2023/09/24 00:33:11;;;;;;;2.58;1.73;;;;;;;12.33;100.00;101308.84;8310927;28;20629;-85
2023/09/24 00:37:11;;;;;;;3.00;1.70;;;;;;;12.50;100.00;101341.66;8343685;28;20056;-85
2023/09/24 00:41:13;;;;;;;3.97;2.38;;;;;;;12.44;100.00;101338.63;8362997;28;20044;-85
2023/09/24 00:45:14;;;;;;;2.90;1.85;;;;;;;12.18;100.00;101324.59;8372009;28;20414;-85
2023/09/24 00:49:15;;;;;;;2.47;1.58;;;;;;;12.18;100.00;101302.91;8328646;28;20118;-85
2023/09/24 00:53:16;;;;;;;3.42;1.70;;;;;;;12.42;100.00;101335.19;8338274;28;20124;-85
2023/09/24 00:57:16;;;;;;;3.75;2.17;;;;;;;12.36;100.00;101341.13;8348574;28;20040;-85
2023/09/24 01:01:24;;;;;;;5.10;1.83;;;;;;;12.14;99.98;101343.97;8357660;28;20029;-85
2023/09/24 01:05:24;;;;;;;4.55;2.05;;;;;;;12.04;100.00;101349.28;8360301;28;20082;-85
2023/09/24 01:09:25;;;;;;;3.33;1.67;;;;;;;12.04;100.00;101348.44;8358985;28;20158;-85
2023/09/24 01:13:39;;;;;;;5.22;1.88;;;;;;;11.82;100.00;101328.56;8350645;28;20072;-85
2023/09/24 01:17:40;;;;;;;;;;;;;;;12.05;100.00;101359.16;8368875;28;20047;-85
2023/09/24 01:21:41;;;;;;;3.55;2.00;;;;;;;12.08;100.00;101363.44;8356730;28;20004;-85
2023/09/24 01:25:44;;;;;;;3.58;1.55;;;;;;;11.80;100.00;101330.53;8338777;28;20036;-87
2023/09/24 01:29:44;;;;;;;3.80;2.25;;;;;;;11.83;100.00;101357.38;8348045;28;20036;-87
2023/09/24 01:33:45;;;;;;;4.95;1.90;;;;;;;11.78;100.00;101356.88;8335334;28;20094;-85
2023/09/24 01:37:46;;;;;;;6.63;1.90;;;;;;;11.96;100.00;101359.06;8350402;28;20033;-85
2023/09/24 01:41:46;;;;;;;3.70;1.90;;;;;;;11.85;100.00;101358.13;8332983;28;20710;-85
2023/09/24 01:45:47;;;;;;;5.53;2.15;;;;;;;11.67;100.00;101332.56;8360273;28;20052;-87
2023/09/24 01:49:49;;;;;;;6.72;2.67;;;;;;;11.85;100.00;101384.34;8359268;28;20178;-88
2023/09/24 01:53:50;;;;;;;4.18;1.98;;;;;;;11.83;100.00;101387.19;8334523;28;20045;-87
2023/09/24 01:57:51;;;;;;;6.93;2.03;;;;;;;11.77;100.00;101360.59;8349693;28;20039;-88
2023/09/24 02:01:52;;;;;;;4.43;1.90;;;;;;;11.66;100.00;101363.38;8350169;28;20072;-87
2023/09/24 02:05:52;;;;;;;2.95;1.75;;;;;;;11.63;100.00;101355.50;8342974;28;20051;-87
2023/09/24 02:09:53;;;;;;;4.82;2.28;;;;;;;11.58;100.00;101382.03;8349203;28;20571;-87
2023/09/24 02:13:54;;;;;;;4.68;2.15;;;;;;;11.39;100.00;101389.97;8366165;28;20044;-87
2023/09/24 02:17:55;;;;;;;3.97;1.75;;;;;;;11.23;100.00;101358.84;8349002;28;20040;-87
2023/09/24 02:21:56;;;;;;;6.75;1.98;;;;;;;11.39;100.00;101392.66;8357446;28;20294;-87
2023/09/24 02:25:56;;;;;;;8.75;2.22;;;;;;;11.36;100.00;101387.50;8355913;28;20120;-86
2023/09/24 02:29:57;;;;;;;7.50;1.88;;;;;;;11.46;100.00;101385.75;8341254;28;20036;-88
2023/09/24 02:33:58;;;;;;;1.98;1.77;;;;;;;11.43;100.00;101388.72;8365690;28;20045;-88
2023/09/24 02:37:58;;;;;;;7.38;1.90;;;;;;;11.52;100.00;101400.63;8332535;28;20052;-88
2023/09/24 02:42:09;;;;;;;2.53;1.50;;;;;;;11.32;100.00;101366.22;8336513;28;20502;-87
2023/09/24 02:46:11;;;;;;;5.38;2.22;;;;;;;11.44;100.00;101389.59;8330746;28;20124;-87
2023/09/24 02:50:13;;;;;;;3.05;1.23;;;;;;;11.44;100.00;101393.13;8355084;28;20037;-87
2023/09/24 02:54:15;;;;;;;4.07;1.88;;;;;;;11.35;100.00;101393.03;8300267;28;20029;-85
2023/09/24 02:58:17;;;;;;;4.78;2.15;;;;;;;11.38;100.00;101396.34;8322542;28;20522;-85
2023/09/24 03:02:18;;;;;;;8.82;1.85;;;;;;;11.45;100.00;101400.28;8330310;28;20044;-84
2023/09/24 03:06:19;;;;;;;3.75;1.98;;;;;;;11.36;100.00;101398.31;8354944;28;20037;-88
2023/09/24 03:10:21;;;;;;;5.13;1.75;;;;;;;11.44;100.00;101401.25;8357394;28;20038;-87
2023/09/24 03:14:22;;;;;;;7.57;2.25;;;;;;;11.28;100.00;101387.25;8343737;28;20090;-88
2023/09/24 03:18:22;;;;;;;3.80;1.85;;;;;;;11.02;100.00;101350.59;8345662;28;20105;-87
2023/09/24 03:22:24;;;;;;;4.22;1.85;;;;;;;10.87;100.00;101359.94;8346808;28;20504;-87
2023/09/24 03:26:25;;;;;;;1.85;1.50;;;;;;;11.01;100.00;101385.91;8332112;28;20036;-87
2023/09/24 03:30:27;;;;;;;5.35;1.80;;;;;;;11.21;100.00;101425.75;8331490;28;20036;-87
2023/09/24 03:34:28;;;;;;;5.55;1.80;;;;;;;11.19;100.00;101436.69;8324851;28;20045;-88
2023/09/24 03:38:29;;;;;;;5.53;2.33;;;;;;;10.98;100.00;101396.97;8331502;28;20128;-87
2023/09/24 03:42:29;;;;;;;3.60;2.17;;;;;;;10.82;100.00;101375.66;8310740;28;20037;-87
2023/09/24 03:46:30;;;;;;;4.20;2.28;;;;;;;11.23;100.00;101424.63;8339931;28;20119;-88
2023/09/24 03:50:31;;;;;;;4.13;1.77;;;;;;;11.03;100.00;101422.66;8330796;28;20057;-87
2023/09/24 03:54:32;;;;;;;4.75;1.95;;;;;;;11.22;100.00;101454.53;8295778;28;20060;-86
2023/09/24 03:58:33;;;;;;;3.55;1.83;;;;;;;11.04;100.00;101432.50;8321930;28;20717;-86
2023/09/24 04:02:35;;;;;;;5.25;2.40;;;;;;;11.05;100.00;101447.78;8323290;28;20506;-85
2023/09/24 04:06:35;;;;;;;6.15;2.13;;;;;;;10.88;100.00;101450.94;8354716;28;20367;-85
2023/09/24 04:10:36;;;;;;;4.90;1.88;;;;;;;10.89;100.00;101420.19;8275974;28;20032;-86
2023/09/24 04:14:36;;;;;;;3.60;1.90;;;;;;;10.72;100.00;101454.94;8308148;28;20064;-86
2023/09/24 04:18:38;;;;;;;7.80;2.00;;;;;;;10.70;100.00;101449.66;8306586;28;20043;-87
2023/09/24 04:22:38;;;;;;;4.72;1.70;;;;;;;10.84;100.00;101468.41;8320399;28;20043;-87
2023/09/24 04:26:40;;;;;;;5.50;1.70;;;;;;;10.67;100.00;101468.81;8295299;28;20079;-86
2023/09/24 04:30:40;;;;;;;4.55;2.00;;;;;;;10.41;100.00;101426.72;8310975;28;20517;-85
2023/09/24 04:34:41;;;;;;;3.92;1.95;;;;;;;10.63;100.00;101464.63;8320183;28;20405;-85
2023/09/24 04:38:43;;;;;;;4.97;2.20;;;;;;;10.61;100.00;101461.19;8337764;28;20571;-85
2023/09/24 04:42:45;;;;;;;3.25;2.10;;;;;;;10.81;100.00;101475.88;8358328;28;20033;-85
2023/09/24 04:46:45;;;;;;;3.50;1.85;;;;;;;10.80;100.00;101474.16;8332558;28;20082;-86
2023/09/24 04:50:46;;;;;;;3.58;2.08;;;;;;;10.62;100.00;101452.09;8289627;28;20049;-86
2023/09/24 04:54:46;;;;;;;4.38;1.95;;;;;;;10.78;100.00;101490.50;8330195;28;20420;-85
2023/09/24 04:58:47;;;;;;;6.50;2.40;;;;;;;10.63;100.00;101483.56;8342161;28;20051;-85
2023/09/24 05:02:48;;;;;;;3.10;1.33;;;;;;;10.38;100.00;101467.50;8332902;28;20490;-85
2023/09/24 05:06:48;;;;;;;5.45;2.00;;;;;;;10.55;100.00;101501.38;8314374;28;20256;-87
2023/09/24 05:10:49;;;;;;;7.00;2.33;;;;;;;10.32;100.00;101473.38;8325940;28;20554;-87
2023/09/24 05:14:50;;;;;;;5.65;2.03;;;;;;;10.35;100.00;101473.13;8369171;28;20125;-89
2023/09/24 05:18:51;;;;;;;7.93;2.10;;;;;;;10.37;100.00;101490.06;8344742;28;20040;-89
2023/09/24 05:22:51;;;;;;;5.57;2.10;;;;;;;10.41;100.00;101515.91;8341320;28;20037;-89
2023/09/24 05:26:52;;;;;;;6.15;1.92;;;;;;;9.96;100.00;101454.47;8318466;28;20040;-85
2023/09/24 05:30:53;;;;;;;4.45;2.33;;;;;;;10.16;100.00;101489.00;8345872;28;20409;-85
2023/09/24 05:34:54;;;;;;;3.90;1.90;;;;;;;10.10;100.00;101462.44;8326458;28;20086;-85
2023/09/24 05:38:55;;;;;;;4.90;2.00;;;;;;;10.43;100.00;101518.50;8336438;28;20123;-85
2023/09/24 05:42:56;;;;;;;4.07;1.77;;;;;;;10.63;100.00;101529.53;8333550;28;20402;-85
2023/09/24 05:46:56;;;;;;;4.85;2.40;;;;;;;10.58;100.00;101526.31;8359043;28;20120;-85
2023/09/24 05:51:02;;;;;;;6.30;2.25;;;;;;;10.66;100.00;101532.00;8352976;28;20659;-85
2023/09/24 05:55:03;;;;;;;10.10;2.03;;;;;;;10.57;100.00;101502.97;8349979;28;20068;-84
2023/09/24 05:59:04;;;;;;;3.92;2.20;;;;;;;10.77;100.00;101526.63;8332037;28;20040;-85
2023/09/24 06:03:04;;;;;;;2.78;2.08;;;;;;;10.94;100.00;101550.56;8316845;28;20043;-84
2023/09/24 06:07:05;;;;;;;2.88;1.65;;;;;;;10.94;100.00;101515.38;8339966;28;20087;-85
2023/09/24 06:11:08;;;;;;;3.72;1.90;;;;;;;11.31;100.00;101560.25;8325437;28;20128;-84
2023/09/24 06:15:10;;;;;;;3.67;2.10;;;;;;;11.34;100.00;101551.91;8358079;28;20040;-85
2023/09/24 06:19:11;;;;;;;2.95;1.63;;;;;;;11.68;100.00;101561.81;8331707;28;20093;-84
2023/09/24 06:23:12;;;;;;;7.75;2.15;;;;;;;11.87;100.00;101575.59;8358796;28;20040;-84
2023/09/24 06:27:13;;;;;;;4.47;2.25;;;;;;;12.00;100.00;101574.63;8355156;28;20521;-84
2023/09/24 06:31:14;;;;;;;4.20;2.20;;;;;;;12.22;100.00;101577.31;8341092;28;20036;-85
2023/09/24 06:35:15;;;;;;;4.63;1.85;;;;;;;12.36;100.00;101579.78;8355601;28;20524;-88
2023/09/24 06:39:15;;;;;;;1.90;1.45;;;;;;;12.37;100.00;101551.66;8349999;28;20032;-89
2023/09/24 06:43:16;;;;;;;4.43;2.10;;;;;;;12.41;99.43;101550.44;8322933;28;20575;-89
2023/09/24 06:47:16;;;;;;;5.60;2.00;;;;;;;12.88;98.96;101593.44;8340068;28;20464;-89
2023/09/24 06:51:17;;;;;;;4.53;1.80;;;;;;;12.92;99.03;101587.63;8362061;28;20032;-87
2023/09/24 06:55:18;;;;;;;5.30;1.48;;;;;;;13.39;96.73;101595.31;8351893;28;20099;-87
2023/09/24 06:59:19;;;;;;;3.10;1.67;;;;;;;13.54;95.31;101598.53;8365016;28;20055;-88
2023/09/24 07:03:19;;;;;;;3.13;1.60;;;;;;;13.70;94.78;101599.78;8335922;28;20036;-88
2023/09/24 07:07:20;;;;;;;4.40;1.20;;;;;;;14.00;94.91;101607.09;8368344;28;20037;-88
2023/09/24 07:11:24;;;;;;;3.80;1.45;;;;;;;14.15;91.26;101600.31;8348302;28;20040;-88
2023/09/24 07:15:24;;;;;;;3.83;1.55;;;;;;;14.25;91.64;101620.31;8350839;28;20044;-88
2023/09/24 07:19:25;;;;;;;5.25;1.15;;;;;;;14.28;91.23;101579.22;8373379;28;20132;-88
2023/09/24 07:23:26;;;;;;;4.32;1.35;;;;;;;14.74;89.92;101598.53;8322805;28;20029;-89
2023/09/24 07:27:47;;;;;;;3.50;1.13;;;;;;;14.81;89.95;101604.25;8351551;28;20043;-86
2023/09/24 07:31:47;;;;;;;2.28;1.23;;;;;;;14.81;90.21;101560.69;8343646;28;20506;-86
2023/09/24 07:35:48;;;;;;;4.30;1.65;;;;;;;15.21;88.97;101592.22;8330907;28;20445;-85
2023/09/24 07:39:49;;;;;;;2.95;1.23;;;;;;;15.12;88.15;101579.47;8344286;28;20037;-85
2023/09/24 07:43:50;;;;;;;5.28;1.30;;;;;;;15.42;87.28;101605.72;8327699;28;20041;-85
2023/09/24 07:47:50;;;;;;;4.47;1.27;;;;;;;15.62;88.97;101618.34;8354552;28;20036;-89
2023/09/24 07:52:00;;;;;;;3.40;1.08;;;;;;;15.43;88.58;101567.41;8347044;28;20504;-88
2023/09/24 07:56:08;;;;;;;5.70;2.00;;;;;;;15.97;85.88;101587.66;8337125;28;20045;-88
2023/09/24 08:00:10;;;;;;;3.33;1.17;;;;;;;16.19;84.81;101617.31;8342618;28;20036;-87
2023/09/24 08:04:13;;;;;;;6.47;1.67;;;;;;;16.20;84.74;101608.97;8343222;28;20059;-88
2023/09/24 08:08:14;;;;;;;6.53;1.10;;;;;;;16.13;84.89;101574.25;8356149;28;20039;-88
2023/09/24 08:12:16;;;;;;;6.30;0.98;;;;;;;16.32;86.89;101575.03;8354249;28;20032;-89
2023/09/24 08:16:16;;;;;;;6.20;0.93;;;;;;;17.19;82.71;101631.66;8354814;28;20040;-88
2023/09/24 08:20:17;;;;;;;2.28;0.93;;;;;;;17.01;83.92;101576.16;8325987;28;20047;-88
2023/09/24 08:24:18;;;;;;;2.05;0.77;;;;;;;17.44;81.70;101635.50;8322395;28;20043;-89
2023/09/24 08:28:18;;;;;;;3.22;1.10;;;;;;;17.39;81.08;101572.22;8330215;28;20060;-88
2023/09/24 08:32:19;;;;;;;3.58;0.68;;;;;;;18.01;78.73;101596.63;8330262;28;20036;-87
2023/09/24 08:36:21;;;;;;;3.25;1.05;;;;;;;18.10;78.36;101571.00;8333995;28;20036;-89
2023/09/24 08:40:26;;;;;;;2.85;0.90;;;;;;;18.11;79.40;101630.19;8354354;28;20037;-85
2023/09/24 08:44:29;;;;;;;5.15;1.33;;;;;;;17.88;79.85;101582.53;8339699;28;20047;-89
2023/09/24 08:48:31;;;;;;;3.67;1.17;;;;;;;18.25;79.00;101615.91;8325546;28;20037;-88
2023/09/24 08:52:35;;;;;;;2.42;0.90;;;;;;;18.76;77.49;101620.44;8357649;28;20116;-88
2023/09/24 08:56:35;;;;;;;2.70;0.93;;;;;;;18.74;78.56;101619.75;8355971;28;20056;-86
2023/09/24 09:00:38;;;;;;;2.35;0.70;;;;;;;18.69;77.87;101620.25;8360736;28;20329;-87
2023/09/24 09:04:50;;;;;;;2.75;1.05;;;;;;;18.85;77.88;101560.00;8324596;28;20123;-87
2023/09/24 09:08:51;;;;;;;1.98;0.80;;;;;;;19.20;75.35;101592.59;8356345;28;20512;-87
2023/09/24 09:13:08;;;;;;;3.13;0.77;;;;;;;19.83;74.45;101567.22;8351771;28;20558;-86
2023/09/24 09:17:12;;;;;;;3.33;0.70;;;;;;;21.49;68.34;101549.16;8334503;28;20037;-86
2023/09/24 09:21:25;;;;;;;4.85;0.70;;;;;;;23.60;61.53;101577.41;8327054;28;20032;-86
2023/09/24 09:25:26;;;;;;;3.23;0.90;;;;;;;24.96;57.76;101571.88;8317917;28;20535;-85
2023/09/24 09:29:28;;;;;;;1.95;0.68;;;;;;;25.50;56.48;101596.72;8341469;28;20731;-85
2023/09/24 09:33:30;;;;;;;1.95;0.50;;;;;;;25.49;55.75;101568.16;8343685;28;20060;-85
2023/09/24 09:37:31;;;;;;;5.15;0.80;;;;;;;26.01;53.87;101568.16;8327394;28;20044;-85
2023/09/24 09:41:33;;;;;;;2.83;0.60;;;;;;;25.83;52.24;101520.81;8336851;28;20032;-85
2023/09/24 09:45:35;;;;;;;4.88;0.60;;;;;;;26.40;53.69;101578.31;8327353;28;20048;-85
2023/09/24 09:49:41;;;;;;;1.95;0.70;;;;;;;26.45;52.11;101576.63;8330870;28;20449;-84
2023/09/24 09:53:43;;;;;;;2.58;0.57;;;;;;;26.44;51.45;101527.72;8362530;28;20124;-85
2023/09/24 09:57:46;;;;;;;1.83;0.50;;;;;;;25.86;52.69;101548.13;8347587;28;20451;-86
2023/09/24 10:01:47;;;;;;;2.25;0.43;;;;;;;26.68;52.69;101565.00;8324460;28;20466;-85
2023/09/24 10:05:49;;;;;;;4.50;0.70;;;;;;;27.47;51.93;101559.88;8332141;28;20036;-86
2023/09/24 10:09:50;;;;;;;2.88;0.50;;;;;;;26.33;51.19;101550.63;8349292;28;20277;-85
2023/09/24 10:13:51;;;;;;;2.05;0.50;;;;;;;27.29;49.86;101551.47;8317674;28;20041;-85
2023/09/24 10:18:21;;;;;;;2.28;0.50;;;;;;;27.65;49.62;101527.44;8348192;28;20032;-85
2023/09/24 10:22:24;;;;;;;3.78;0.52;;;;;;;27.26;50.19;101536.06;8341349;28;20689;-84
2023/09/24 10:27:03;;;;;;;3.85;0.60;;;;;;;26.58;51.66;101545.19;8308454;28;20445;-85
2023/09/24 10:31:05;;;;;;;4.28;0.60;;;;;;;27.04;52.23;101517.22;8358815;28;20040;-85
2023/09/24 10:35:09;;;;;;;2.22;0.70;;;;;;;26.82;50.88;101538.91;8344830;28;20425;-86
2023/09/24 10:39:13;;;;;;;1.35;0.43;;;;;;;26.75;50.40;101530.59;8328622;28;20275;-86
2023/09/24 10:43:15;;;;;;;1.20;0.30;;;;;;;27.44;48.95;101505.59;8309857;28;20029;-86
2023/09/24 10:47:33;;;;;;;1.98;0.60;;;;;;;27.40;48.52;101482.13;8346353;28;20034;-88
2023/09/24 10:51:34;;;;;;;1.77;0.50;;;;;;;27.30;48.22;101514.28;8344122;28;20370;-88
2023/09/24 10:55:36;;;;;;;2.97;0.40;;;;;;;27.83;46.82;101521.06;8352260;28;20036;-88
2023/09/24 10:59:37;;;;;;;1.60;0.40;;;;;;;27.54;47.99;101460.63;8335067;28;20047;-88
2023/09/24 11:03:40;;;;;;;2.58;0.57;;;;;;;28.12;47.14;101445.28;8358912;28;20040;-88
2023/09/24 11:07:41;;;;;;;0.88;0.20;;;;;;;28.75;44.75;101481.91;8358155;28;20037;-89
2023/09/24 11:12:31;;;;;;;2.03;0.38;;;;;;;28.26;44.34;101444.00;8313184;28;20105;-88
2023/09/24 11:16:31;;;;;;;1.58;0.40;;;;;;;28.23;44.09;101478.72;8336369;28;20052;-88
2023/09/24 11:20:35;;;;;;;2.30;0.43;;;;;;;28.32;43.64;101482.88;8380944;28;20029;-89
2023/09/24 11:24:36;;;;;;;3.28;0.50;;;;;;;28.23;43.96;101445.31;8346718;28;20056;-89
2023/09/24 11:28:39;;;;;;;1.63;0.52;;;;;;;28.84;41.13;101450.69;8332258;28;20037;-89
2023/09/24 11:32:41;;;;;;;1.65;0.50;;;;;;;28.31;43.21;101449.72;8373226;28;20044;-89
2023/09/24 11:36:54;;;;;;;1.73;0.45;;;;;;;29.10;43.04;101457.81;8369346;28;20466;-88
2023/09/24 11:41:13;;;;;;;1.17;0.50;;;;;;;28.61;43.80;101431.16;8324887;28;20091;-89
2023/09/24 11:45:14;;;;;;;1.25;0.35;;;;;;;28.00;44.10;101452.69;8342538;28;20044;-90
2023/09/24 11:49:14;;;;;;;0.63;0.30;;;;;;;27.91;44.77;101443.81;8341274;28;20112;-90
2023/09/24 11:53:18;;;;;;;0.82;0.32;;;;;;;28.56;43.58;101433.78;8354597;28;20036;-89
2023/09/24 11:57:19;;;;;;;3.78;1.23;;;;;;;28.50;43.53;101407.75;8297861;28;20088;-85
2023/09/24 12:01:26;;;;;;;1.35;0.40;;;;;;;29.03;42.71;101430.03;8345029;28;20037;-85
2023/09/24 12:05:29;;;;;;;1.95;0.50;;;;;;;28.26;44.42;101399.50;8333483;28;20044;-88
2023/09/24 12:09:31;;;;;;;1.50;0.40;;;;;;;29.12;43.10;101417.50;8319967;28;20041;-89
2023/09/24 12:13:31;;;;;;;2.28;0.57;;;;;;;29.01;41.93;101426.66;8340416;28;20050;-88
2023/09/24 12:17:36;;;;;;;0.68;0.47;;;;;;;27.95;43.61;101385.78;8324412;28;20044;-89
2023/09/24 12:21:36;;;;;;;;;;;;;;;29.06;42.78;101446.31;8343597;28;20071;-88
2023/09/24 12:25:39;;;;;;;4.10;0.47;;;;;;;29.29;41.77;101423.19;8348827;28;19913;-88
2023/09/24 12:29:40;;;;;;;3.57;0.43;;;;;;;27.98;43.36;101424.25;8349565;28;20421;-88
2023/09/24 12:33:41;;;;;;;1.33;0.57;;;;;;;26.52;45.10;101377.69;8346717;28;20032;-88
2023/09/24 12:37:42;;;;;;;1.02;0.30;;;;;;;26.27;46.21;101401.75;8347226;28;20044;-88
2023/09/24 12:41:42;;;;;;;1.85;0.40;;;;;;;25.78;47.07;101409.81;8313073;28;20033;-87
2023/09/24 12:45:43;;;;;;;1.25;0.52;;;;;;;24.64;48.89;101406.63;8363114;28;20358;-87
2023/09/24 12:49:44;;;;;;;1.42;0.38;;;;;;;24.68;48.14;101425.41;8331432;28;20902;-86
2023/09/24 12:53:48;;;;;;;1.02;0.32;;;;;;;24.30;49.14;101365.28;8358494;28;20032;-88
2023/09/24 12:57:49;;;;;;;2.35;0.50;;;;;;;24.51;47.81;101412.13;8337441;28;20028;-86
2023/09/24 13:01:50;;;;;;;1.33;0.40;;;;;;;24.30;48.51;101407.59;8360669;28;20079;-86
2023/09/24 13:05:50;;;;;;;1.85;0.50;;;;;;;24.21;48.98;101413.53;8332160;28;20045;-86
2023/09/24 13:09:51;;;;;;;1.23;0.40;;;;;;;24.47;49.16;101408.94;8331390;28;20127;-85
2023/09/24 13:13:54;;;;;;;1.95;0.43;;;;;;;24.36;48.64;101408.69;8354561;28;20045;-86
2023/09/24 13:17:57;;;;;;;1.92;0.30;;;;;;;24.27;48.98;101383.13;8346176;28;20060;-86
2023/09/24 13:21:58;;;;;;;1.77;0.30;;;;;;;23.88;49.11;101348.97;8300918;28;20127;-86
2023/09/24 13:25:59;;;;;;;2.38;0.45;;;;;;;23.88;49.70;101343.44;8352395;28;20036;-85
2023/09/24 13:30:00;;;;;;;1.85;0.32;;;;;;;23.81;48.87;101337.03;8327706;28;20044;-85
2023/09/24 13:34:04;;;;;;;1.80;0.45;;;;;;;23.95;50.81;101392.19;8332711;28;20047;-85
2023/09/24 13:38:04;;;;;;;1.00;0.30;;;;;;;23.88;49.84;101354.50;8345742;28;20048;-85
2023/09/24 13:42:11;;;;;;;1.80;0.32;;;;;;;23.79;49.02;101339.16;8334262;28;20288;-86
2023/09/24 13:46:11;;;;;;;3.70;0.50;;;;;;;23.91;48.67;101349.41;8334842;28;20032;-86
2023/09/24 13:50:12;;;;;;;1.42;0.40;;;;;;;23.99;51.20;101379.66;8348668;28;20612;-86
2023/09/24 13:54:13;;;;;;;1.05;0.40;;;;;;;24.08;48.77;101338.84;8371307;28;20544;-84
2023/09/24 13:58:13;;;;;;;1.20;0.30;;;;;;;24.20;47.97;101371.22;8331344;28;20037;-85
2023/09/24 14:02:16;;;;;;;1.27;0.35;;;;;;;23.84;49.01;101347.66;8322893;28;20040;-85
2023/09/24 14:06:37;;;;;;;2.92;0.40;;;;;;;23.89;49.91;101306.47;8306594;28;20051;-85
2023/09/24 14:15:11;;;;;;;2.75;0.47;;;;;;;23.90;48.88;101331.13;8351722;28;20421;-87
2023/09/24 14:19:12;;;;;;;0.90;0.40;;;;;;;23.66;48.92;101311.50;8362516;28;20052;-86
2023/09/24 14:23:15;;;;;;;2.20;0.80;;;;;;;24.01;49.11;101365.63;8326301;28;20056;-85
2023/09/24 14:27:18;;;;;;;2.17;0.30;;;;;;;24.03;48.22;101352.47;8353063;28;20041;-85
2023/09/24 14:31:22;;;;;;;0.93;0.20;;;;;;;23.83;47.99;101318.34;8306609;28;20040;-86
2023/09/24 14:35:22;;;;;;;1.35;0.30;;;;;;;24.10;47.58;101354.19;8309749;28;20632;-86
2023/09/24 14:39:23;;;;;;;11.15;0.50;;;;;;;23.73;48.23;101324.28;8366572;28;20110;-86
2023/09/24 14:43:25;;;;;;;1.20;0.32;;;;;;;23.81;48.42;101360.00;8352449;28;20033;-85
2023/09/24 14:47:26;;;;;;;1.50;0.22;;;;;;;23.81;48.30;101337.03;8366634;28;20450;-86
2023/09/24 14:51:27;;;;;;;0.60;0.28;;;;;;;23.97;47.95;101331.19;8333550;28;20028;-85
2023/09/24 14:55:31;;;;;;;2.05;0.40;;;;;;;23.90;47.35;101291.59;8342961;28;20053;-86
2023/09/24 14:59:31;;;;;;;0.80;0.30;;;;;;;23.97;47.41;101326.50;8331300;28;20036;-86
2023/09/24 15:03:34;;;;;;;0.68;0.30;;;;;;;23.78;48.32;101293.28;8341518;28;20135;-86
2023/09/24 15:07:35;;;;;;;1.08;0.60;;;;;;;23.65;48.01;101298.72;8348709;28;20111;-87
2023/09/24 15:11:35;;;;;;;3.30;0.40;;;;;;;23.87;48.55;101314.09;8346508;28;20406;-87
2023/09/24 15:15:41;;;;;;;1.55;0.47;;;;;;;23.78;48.45;101310.69;8329935;28;20128;-86
2023/09/24 15:19:41;;;;;;;1.90;0.30;;;;;;;23.39;48.98;101266.34;8348414;28;20040;-86
2023/09/24 15:23:42;;;;;;;0.55;0.30;;;;;;;23.46;49.25;101288.47;8366335;28;20033;-87
2023/09/24 15:27:43;;;;;;;3.15;0.40;;;;;;;23.67;49.36;101302.16;8349718;28;20250;-87
2023/09/24 15:31:46;;;;;;;0.47;0.30;;;;;;;23.70;49.84;101301.72;8337477;28;20037;-86
2023/09/24 15:35:46;;;;;;;4.25;0.50;;;;;;;23.26;49.49;101248.88;8328141;28;20470;-86
2023/09/24 15:39:47;;;;;;;1.85;0.90;;;;;;;23.55;49.44;101289.97;8355276;28;20055;-86
2023/09/24 15:43:47;;;;;;;2.20;0.60;;;;;;;23.49;51.10;101288.03;8358053;28;20123;-87
2023/09/24 15:47:48;;;;;;;2.45;0.68;;;;;;;23.23;53.66;101282.38;8335594;28;20076;-87
2023/09/24 15:51:51;;;;;;;14.57;1.20;;;;;;;23.24;54.60;101289.63;8336519;28;20130;-87
2023/09/24 15:55:52;;;;;;;1.85;0.50;;;;;;;23.08;53.66;101264.03;8315719;28;20579;-85
2023/09/24 15:59:53;;;;;;;2.03;0.52;;;;;;;23.09;54.88;101286.97;8335335;28;20442;-89
2023/09/24 16:03:55;;;;;;;1.10;0.52;;;;;;;23.04;55.34;101284.81;8351228;28;20800;-85
2023/09/24 16:07:57;;;;;;;1.25;0.30;;;;;;;22.80;56.19;101278.91;8358402;28;20509;-84
2023/09/24 16:11:57;;;;;;;2.60;0.60;;;;;;;22.81;56.19;101284.22;8356370;28;20045;-85
2023/09/24 16:15:58;;;;;;;1.85;0.50;;;;;;;22.71;56.41;101272.69;8365722;28;20057;-87
2023/09/24 16:19:59;;;;;;;3.63;0.95;;;;;;;22.45;57.10;101261.41;8358211;28;20125;-87
2023/09/24 16:24:00;;;;;;;1.50;0.50;;;;;;;22.45;57.38;101277.94;8340100;28;20687;-87
2023/09/24 16:28:00;;;;;;;2.35;0.55;;;;;;;22.62;56.58;101284.94;8372150;28;20036;-87
2023/09/24 16:32:01;;;;;;;2.00;0.47;;;;;;;22.42;57.64;101289.38;8352871;28;20037;-88
2023/09/24 16:36:02;;;;;;;2.30;0.70;;;;;;;22.18;58.72;101292.56;8354874;28;20039;-87
2023/09/24 16:40:03;;;;;;;2.58;0.82;;;;;;;22.10;58.88;101300.09;8352098;28;20442;-88
2023/09/24 16:44:04;;;;;;;2.30;0.68;;;;;;;21.94;59.45;101289.31;8356643;28;20485;-88
2023/09/24 16:48:05;;;;;;;1.75;0.57;;;;;;;21.78;60.52;101295.94;8343439;28;20083;-87
2023/09/24 16:52:18;;;;;;;2.08;0.52;;;;;;;21.32;61.32;101239.44;8355268;28;20049;-88
2023/09/24 16:56:19;;;;;;;1.85;0.43;;;;;;;21.64;61.61;101288.53;8334206;28;20601;-87
2023/09/24 17:00:19;;;;;;;1.75;0.70;;;;;;;21.47;62.41;101303.53;8350403;28;20044;-88
2023/09/24 17:04:20;;;;;;;1.15;0.70;;;;;;;21.39;62.22;101306.41;8354377;28;20157;-88
2023/09/24 17:08:20;;;;;;;1.75;0.52;;;;;;;21.32;62.23;101305.47;8371020;28;20041;-88
2023/09/24 17:12:21;;;;;;;2.10;0.73;;;;;;;21.08;62.80;101319.50;8348149;28;20091;-87
2023/09/24 17:16:29;;;;;;;0.95;0.47;;;;;;;20.97;63.21;101322.72;8356754;28;20040;-85
2023/09/24 17:20:56;;;;;;;4.07;0.85;;;;;;;20.67;64.28;101326.41;8350428;28;20047;-85
2023/09/24 17:24:59;;;;;;;1.00;0.50;;;;;;;20.32;65.40;101283.13;8314183;28;20064;-85
2023/09/24 17:29:01;;;;;;;1.42;0.60;;;;;;;20.34;65.57;101306.63;8344644;28;20046;-88
2023/09/24 17:33:03;;;;;;;2.53;0.47;;;;;;;20.18;64.54;101270.19;8337152;28;20040;-89
2023/09/24 17:37:03;;;;;;;2.22;0.60;;;;;;;19.95;65.15;101269.34;8344412;28;20117;-88
2023/09/24 17:41:04;;;;;;;1.60;0.50;;;;;;;19.83;65.10;101309.22;8363432;28;20037;-88
2023/09/24 17:45:11;;;;;;;3.13;0.70;;;;;;;19.62;65.26;101295.28;8303839;28;20035;-89
2023/09/24 17:49:15;;;;;;;1.27;0.50;;;;;;;19.79;65.47;101335.31;8303635;28;20047;-87
2023/09/24 17:53:19;;;;;;;1.40;0.52;;;;;;;19.30;65.97;101291.66;8346689;28;20037;-87
2023/09/24 17:57:19;;;;;;;1.90;0.50;;;;;;;19.51;66.56;101350.56;8346706;28;20044;-88
2023/09/24 18:01:25;;;;;;;2.30;0.47;;;;;;;19.17;66.86;101324.25;8343298;28;20029;-88
2023/09/24 18:05:26;;;;;;;1.92;0.50;;;;;;;18.95;67.48;101319.50;8348618;28;20649;-87
2023/09/24 18:09:29;;;;;;;1.40;0.60;;;;;;;18.92;68.49;101341.78;8316494;28;20043;-87
2023/09/24 18:13:30;;;;;;;2.67;0.65;;;;;;;18.50;69.53;101301.94;8342242;28;20033;-89
2023/09/24 18:17:33;;;;;;;1.10;0.60;;;;;;;18.29;70.39;101294.22;8317150;28;20059;-88
2023/09/24 18:22:16;;;;;;;2.95;0.80;;;;;;;18.63;70.82;101360.66;8325767;28;20406;-88
2023/09/24 18:26:48;;;;;;;1.48;0.70;;;;;;;18.55;71.08;101366.16;8317715;28;20041;-87
2023/09/24 18:30:51;;;;;;;3.25;0.65;;;;;;;18.51;70.72;101331.88;8286555;28;20044;-88
2023/09/24 18:34:52;;;;;;;6.75;1.23;;;;;;;18.26;71.52;101338.38;8333012;28;20044;-88
2023/09/24 18:38:53;;;;;;;2.72;0.90;;;;;;;17.85;72.00;101284.63;8336025;28;20098;-85
2023/09/24 18:42:57;;;;;;;1.67;0.88;;;;;;;17.52;73.26;101277.34;8333834;28;20037;-85
2023/09/24 18:46:59;;;;;;;2.92;1.00;;;;;;;17.82;73.63;101356.09;8348714;28;20040;-85